Strona główna
METAR-TAF:

METAR-TAF

Lotnisko :

Julian Carroll Airport

Jackson, Kentucky, Stany Zjednoczone

Szerokość geograficzna: 37-35-29N, Długość geograficzna: 083-18-52W, wysokość: 421 m

Aktualna obserwacja pogody

Raport powstał 35 minut temu, godzina 19:53 UTC
Cisza
Temperatura 6°C
Wilgotność 70%
Ciśnienie 1027 hPa
Widzialność: 16.1 km
Zachmurzenie całkowite na wysokości 1700 ft

METAR: KJKL 071953Z AUTO 00000KT 10SM OVC017 06/01 A3033 RMK AO2 SLP276 T00560011

czas: 15:28 (20:28 UTC)

Prognoza

Raport powstał 2 godziny i 49 minut temu, godzina 17:39 UTC
Prognoza ważna od 07 godzina 18 UTC do 08 godzina 18 UTC
Wiatr kt od północ
Widzialność: 10 km
Przerywane chmury na wysokości 1500 ft
Od 07 godzina 2000 UTC
Wiatr 5 kt z kierunków zmiennych
Widzialność: 10 km
Mało chmury na wysokości 25000 ft

TAF: KJKL 071739Z 0718/0818 00000KT P6SM BKN015 FM072000 VRB05KT P6SM FEW250

Obserwacja i prognoza pogody dla ponad 4000 lotnisk (raport METAR i TAF).

Dostępne stacje oznaczono żółtymi i czerwonymi punktami na mapie.

Najedź kursorem aby zobaczyć nazwę stacji.

Kliknij aby zobaczyć obserwacje i prognozy pogody.

Aby zmienić mapę: kliknij na zielony przycisk z czarnym krzyżykiem, aby powiększyć; na zielony przycisk z myślnikiem, aby pomniejszyć; na zielone strzałki, aby przejść do map sąsiednich.


METAR-TAF: